Terminal Aerodrome Forecast
Issued by NWS

Home | Current Version | Previous Version | Text Only | Print | Product List | Glossary On
Versions: 1 2 3 4 5 6 7 8 9 10 11 12 13 14 15 16 17 18 19 20 21 22 23 24 25 26 27 28 29 30 31 32
000
FTUS45 KABQ 190227 AAA
TAFLVS
TAF AMD
KLVS 190227Z 1902/1924 09010KT P6SM FEW120
     FM190900 18007KT P6SM SKC
     FM191900 20012G18KT P6SM SKC
     FM192300 18008KT P6SM FEW250=

USA.gov is the U.S. government's official web portal to all federal, state and local government web resources and services.